sensor_id;sensor_type;location;lat;lon;timestamp;pressure;altitude;pressure_sealevel;temperature;humidity
69221;BME280;56331;51.992;20.910;2023-04-25T06:55:58;99009.67;;;21.93;42.83
69221;BME280;56331;51.992;20.910;2023-04-25T06:58:24;99021.72;;;21.91;44.10
69221;BME280;56331;51.992;20.910;2023-04-25T07:00:52;99026.08;;;21.92;44.65
69221;BME280;56331;51.992;20.910;2023-04-25T07:03:19;99025.13;;;21.94;44.06
69221;BME280;56331;51.992;20.910;2023-04-25T07:05:45;99034.04;;;21.94;43.85
69221;BME280;56331;51.992;20.910;2023-04-25T07:08:14;99029.09;;;21.93;43.57
69221;BME280;56331;51.992;20.910;2023-04-25T07:10:40;99031.47;;;21.95;43.43
69221;BME280;56331;51.992;20.910;2023-04-25T07:13:07;99032.06;;;21.94;43.28
69221;BME280;56331;51.992;20.910;2023-04-25T07:15:33;99032.29;;;21.95;43.11
69221;BME280;56331;51.992;20.910;2023-04-25T07:18:00;99040.06;;;21.99;43.01
69221;BME280;56331;51.992;20.910;2023-04-25T07:20:26;99036.33;;;22.01;42.90
69221;BME280;56331;51.992;20.910;2023-04-25T07:22:55;99034.19;;;22.04;42.71
69221;BME280;56331;51.992;20.910;2023-04-25T07:25:21;99035.58;;;22.04;42.63
69221;BME280;56331;51.992;20.910;2023-04-25T07:27:48;99036.61;;;22.06;42.49
69221;BME280;56331;51.992;20.910;2023-04-25T07:30:14;99031.46;;;22.08;42.78
69221;BME280;56331;51.992;20.910;2023-04-25T07:32:41;99034.47;;;22.09;42.84
69221;BME280;56331;51.992;20.910;2023-04-25T07:35:07;99036.28;;;22.11;42.93
69221;BME280;56331;51.992;20.910;2023-04-25T07:37:34;99037.28;;;22.13;43.14
69221;BME280;56331;51.992;20.910;2023-04-25T07:40:02;99044.05;;;22.15;43.20
69221;BME280;56331;51.992;20.910;2023-04-25T07:42:30;99036.92;;;22.14;43.39
69221;BME280;56331;51.992;20.910;2023-04-25T07:44:57;99039.99;;;22.19;43.50
69221;BME280;56331;51.992;20.910;2023-04-25T07:47:23;99047.33;;;22.21;43.63
69221;BME280;56331;51.992;20.910;2023-04-25T07:49:50;99055.72;;;22.24;43.76
69221;BME280;56331;51.992;20.910;2023-04-25T07:52:16;99049.94;;;22.23;43.99
69221;BME280;56331;51.992;20.910;2023-04-25T07:54:42;99059.09;;;22.24;43.68
69221;BME280;56331;51.992;20.910;2023-04-25T07:57:09;99058.50;;;22.24;43.62
69221;BME280;56331;51.992;20.910;2023-04-25T07:59:35;99048.78;;;22.24;43.39
69221;BME280;56331;51.992;20.910;2023-04-25T08:02:02;99058.50;;;22.24;43.19
69221;BME280;56331;51.992;20.910;2023-04-25T08:04:28;99059.88;;;22.24;43.04
69221;BME280;56331;51.992;20.910;2023-04-25T08:06:54;99064.05;;;22.24;42.89
69221;BME280;56331;51.992;20.910;2023-04-25T08:09:21;99067.97;;;22.23;42.80
69221;BME280;56331;51.992;20.910;2023-04-25T08:11:48;99067.41;;;22.24;42.72
69221;BME280;56331;51.992;20.910;2023-04-25T08:14:14;99075.34;;;22.25;42.57
69221;BME280;56331;51.992;20.910;2023-04-25T08:16:41;99071.34;;;22.23;42.47
69221;BME280;56331;51.992;20.910;2023-04-25T08:19:09;99079.06;;;22.23;42.36
69221;BME280;56331;51.992;20.910;2023-04-25T08:21:37;99078.27;;;22.23;42.29
69221;BME280;56331;51.992;20.910;2023-04-25T08:24:03;99081.84;;;22.23;42.15
69221;BME280;56331;51.992;20.910;2023-04-25T08:26:30;99074.70;;;22.22;42.08
69221;BME280;56331;51.992;20.910;2023-04-25T08:28:56;99073.91;;;22.22;41.95
69221;BME280;56331;51.992;20.910;2023-04-25T08:31:25;99073.68;;;22.21;41.88
69221;BME280;56331;51.992;20.910;2023-04-25T08:33:51;99066.38;;;22.22;42.59
69221;BME280;56331;51.992;20.910;2023-04-25T08:36:19;99071.18;;;22.25;42.68
69221;BME280;56331;51.992;20.910;2023-04-25T08:38:45;99079.14;;;22.27;42.92
69221;BME280;56331;51.992;20.910;2023-04-25T08:41:13;99074.81;;;22.30;42.96
69221;BME280;56331;51.992;20.910;2023-04-25T08:43:42;99079.17;;;22.31;43.32
69221;BME280;56331;51.992;20.910;2023-04-25T08:46:11;99081.95;;;22.31;43.31
69221;BME280;56331;51.992;20.910;2023-04-25T08:48:40;99082.59;;;22.34;43.15
69221;BME280;56331;51.992;20.910;2023-04-25T08:51:07;99088.36;;;22.35;43.02
69221;BME280;56331;51.992;20.910;2023-04-25T08:53:34;99091.18;;;22.38;43.05
69221;BME280;56331;51.992;20.910;2023-04-25T08:56:01;99098.75;;;22.41;42.90
69221;BME280;56331;51.992;20.910;2023-04-25T08:58:31;99097.59;;;22.42;42.79
69221;BME280;56331;51.992;20.910;2023-04-25T09:00:59;99100.14;;;22.41;42.78
69221;BME280;56331;51.992;20.910;2023-04-25T09:03:26;99107.14;;;22.45;42.69
69221;BME280;56331;51.992;20.910;2023-04-25T09:05:54;99111.47;;;22.42;42.85
69221;BME280;56331;51.992;20.910;2023-04-25T09:08:21;99119.63;;;22.45;42.65
69221;BME280;56331;51.992;20.910;2023-04-25T09:10:47;99123.84;;;22.48;42.50
69221;BME280;56331;51.992;20.910;2023-04-25T09:13:14;99125.22;;;22.48;42.55
69221;BME280;56331;51.992;20.910;2023-04-25T09:15:52;99128.16;;;22.46;42.61
69221;BME280;56331;51.992;20.910;2023-04-25T09:18:24;99129.75;;;22.47;42.36
69221;BME280;56331;51.992;20.910;2023-04-25T09:21:09;99140.92;;;22.50;42.31
69221;BME280;56331;51.992;20.910;2023-04-25T09:23:44;99132.63;;;22.54;42.13
69221;BME280;56331;51.992;20.910;2023-04-25T09:26:16;99133.06;;;22.56;42.16
69221;BME280;56331;51.992;20.910;2023-04-25T09:28:43;99130.29;;;22.56;41.84
69221;BME280;56331;51.992;20.910;2023-04-25T09:31:12;99134.49;;;22.60;41.40
69221;BME280;56331;51.992;20.910;2023-04-25T09:33:40;99132.34;;;22.63;41.36
69221;BME280;56331;51.992;20.910;2023-04-25T09:36:08;99127.66;;;22.67;41.60
69221;BME280;56331;51.992;20.910;2023-04-25T09:38:40;99132.62;;;22.67;41.50
69221;BME280;56331;51.992;20.910;2023-04-25T09:41:05;99138.86;;;22.74;41.52
69221;BME280;56331;51.992;20.910;2023-04-25T09:43:31;99137.48;;;22.74;41.67
69221;BME280;56331;51.992;20.910;2023-04-25T09:45:57;99137.05;;;22.72;41.67
69221;BME280;56331;51.992;20.910;2023-04-25T09:48:27;99136.25;;;22.71;41.73
69221;BME280;56331;51.992;20.910;2023-04-25T09:53:37;99141.05;;;22.75;41.48
69221;BME280;56331;51.992;20.910;2023-04-25T09:56:06;99145.68;;;22.80;41.68
69221;BME280;56331;51.992;20.910;2023-04-25T09:58:34;99143.77;;;22.84;41.79
69221;BME280;56331;51.992;20.910;2023-04-25T10:01:04;99141.62;;;22.87;41.81
69221;BME280;56331;51.992;20.910;2023-04-25T10:03:32;99145.41;;;22.89;41.88
69221;BME280;56331;51.992;20.910;2023-04-25T10:06:00;99150.22;;;22.92;41.89
69221;BME280;56331;51.992;20.910;2023-04-25T10:08:30;99146.84;;;22.92;42.05
69221;BME280;56331;51.992;20.910;2023-04-25T10:11:00;99149.62;;;22.92;42.10
69221;BME280;56331;51.992;20.910;2023-04-25T10:13:31;99150.61;;;22.94;42.31
69221;BME280;56331;51.992;20.910;2023-04-25T10:15:59;99149.66;;;22.96;42.37
69221;BME280;56331;51.992;20.910;2023-04-25T10:18:27;99148.72;;;22.98;42.41
69221;BME280;56331;51.992;20.910;2023-04-25T10:21:03;99148.13;;;22.99;42.52
69221;BME280;56331;51.992;20.910;2023-04-25T10:23:31;99146.54;;;22.98;42.63
69221;BME280;56331;51.992;20.910;2023-04-25T10:25:58;99156.09;;;23.00;42.55
69221;BME280;56331;51.992;20.910;2023-04-25T10:28:24;99144.56;;;22.98;42.68
69221;BME280;56331;51.992;20.910;2023-04-25T10:31:00;99149.95;;;23.01;42.75
69221;BME280;56331;51.992;20.910;2023-04-25T10:33:35;99141.45;;;23.03;42.83
69221;BME280;56331;51.992;20.910;2023-04-25T10:36:13;99147.43;;;23.05;42.88
69221;BME280;56331;51.992;20.910;2023-04-25T10:38:40;99149.41;;;23.05;42.99
69221;BME280;56331;51.992;20.910;2023-04-25T10:41:09;99144.06;;;23.06;43.03
69221;BME280;56331;51.992;20.910;2023-04-25T10:43:39;99144.85;;;23.06;43.13
69221;BME280;56331;51.992;20.910;2023-04-25T10:46:24;99140.69;;;23.06;43.22
69221;BME280;56331;51.992;20.910;2023-04-25T10:49:01;99133.91;;;23.04;42.80
69221;BME280;56331;51.992;20.910;2023-04-25T10:51:29;99138.14;;;23.07;42.96
69221;BME280;56331;51.992;20.910;2023-04-25T10:54:05;99143.70;;;23.07;43.04
69221;BME280;56331;51.992;20.910;2023-04-25T10:59:06;99149.08;;;23.10;43.13
69221;BME280;56331;51.992;20.910;2023-04-25T11:01:42;99145.71;;;23.10;43.21
69221;BME280;56331;51.992;20.910;2023-04-25T11:04:06;99147.09;;;23.10;43.22
69221;BME280;56331;51.992;20.910;2023-04-25T11:06:46;99148.85;;;23.09;42.75
69221;BME280;56331;51.992;20.910;2023-04-25T11:09:11;99143.70;;;23.07;42.37
69221;BME280;56331;51.992;20.910;2023-04-25T11:11:41;99145.81;;;23.04;41.92
69221;BME280;56331;51.992;20.910;2023-04-25T11:14:09;99157.91;;;23.02;41.46
69221;BME280;56331;51.992;20.910;2023-04-25T11:16:36;99154.91;;;23.01;41.26
69221;BME280;56331;51.992;20.910;2023-04-25T11:19:02;99149.78;;;23.03;40.79
69221;BME280;56331;51.992;20.910;2023-04-25T11:21:30;99148.76;;;23.02;41.08
69221;BME280;56331;51.992;20.910;2023-04-25T11:23:57;99147.80;;;23.04;40.43
69221;BME280;56331;51.992;20.910;2023-04-25T11:26:25;99150.41;;;23.06;40.44
69221;BME280;56331;51.992;20.910;2023-04-25T11:28:57;99154.41;;;23.09;40.43
69221;BME280;56331;51.992;20.910;2023-04-25T11:31:24;99153.25;;;23.10;40.38
69221;BME280;56331;51.992;20.910;2023-04-25T11:33:53;99150.67;;;23.11;40.31
69221;BME280;56331;51.992;20.910;2023-04-25T11:36:22;99151.27;;;23.10;40.30
69221;BME280;56331;51.992;20.910;2023-04-25T11:38:50;99154.64;;;23.10;40.28
69221;BME280;56331;51.992;20.910;2023-04-25T11:41:18;99146.14;;;23.12;40.21
69221;BME280;56331;51.992;20.910;2023-04-25T11:43:44;99149.91;;;23.14;40.18
69221;BME280;56331;51.992;20.910;2023-04-25T11:46:11;99158.67;;;23.16;40.14
69221;BME280;56331;51.992;20.910;2023-04-25T11:48:42;99162.24;;;23.17;40.09
69221;BME280;56331;51.992;20.910;2023-04-25T11:51:09;99152.52;;;23.17;40.02
69221;BME280;56331;51.992;20.910;2023-04-25T11:53:35;99154.11;;;23.18;39.96
69221;BME280;56331;51.992;20.910;2023-04-25T11:56:08;99154.70;;;23.17;39.84
69221;BME280;56331;51.992;20.910;2023-04-25T11:58:32;99153.91;;;23.17;39.82
69221;BME280;56331;51.992;20.910;2023-04-25T12:00:58;99155.09;;;23.15;39.81
69221;BME280;56331;51.992;20.910;2023-04-25T12:03:25;99150.30;;;23.12;39.88
69221;BME280;56331;51.992;20.910;2023-04-25T12:06:01;99150.50;;;23.13;39.92
69221;BME280;56331;51.992;20.910;2023-04-25T12:08:23;99150.34;;;23.16;40.14
69221;BME280;56331;51.992;20.910;2023-04-25T12:10:50;99147.16;;;23.18;40.57
69221;BME280;56331;51.992;20.910;2023-04-25T12:13:21;99157.31;;;23.20;41.25
69221;BME280;56331;51.992;20.910;2023-04-25T12:15:48;99153.28;;;23.13;41.02
69221;BME280;56331;51.992;20.910;2023-04-25T12:18:14;99153.08;;;23.12;40.63
69221;BME280;56331;51.992;20.910;2023-04-25T12:20:41;99146.87;;;23.09;40.61
69221;BME280;56331;51.992;20.910;2023-04-25T12:23:08;99142.50;;;23.08;40.54
69221;BME280;56331;51.992;20.910;2023-04-25T12:25:42;99146.47;;;23.07;40.40
69221;BME280;56331;51.992;20.910;2023-04-25T12:28:17;99149.81;;;23.07;40.31
69221;BME280;56331;51.992;20.910;2023-04-25T12:31:06;99146.08;;;23.09;40.32
69221;BME280;56331;51.992;20.910;2023-04-25T12:33:34;99149.31;;;23.14;40.35
69221;BME280;56331;51.992;20.910;2023-04-25T12:36:03;99146.53;;;23.14;40.47
69221;BME280;56331;51.992;20.910;2023-04-25T12:38:41;99145.14;;;23.14;40.68
69221;BME280;56331;51.992;20.910;2023-04-25T12:41:08;99151.12;;;23.17;40.74
69221;BME280;56331;51.992;20.910;2023-04-25T12:43:35;99151.98;;;23.21;40.78
69221;BME280;56331;51.992;20.910;2023-04-25T12:46:01;99155.33;;;23.20;40.93
69221;BME280;56331;51.992;20.910;2023-04-25T12:48:27;99148.02;;;23.22;40.98
69221;BME280;56331;51.992;20.910;2023-04-25T12:50:54;99145.66;;;23.24;41.02
69221;BME280;56331;51.992;20.910;2023-04-25T12:53:22;99144.27;;;23.24;41.21
69221;BME280;56331;51.992;20.910;2023-04-25T12:55:48;99143.25;;;23.22;41.29
69221;BME280;56331;51.992;20.910;2023-04-25T12:58:16;99148.38;;;23.20;41.16
69221;BME280;56331;51.992;20.910;2023-04-25T13:00:44;99150.17;;;23.19;40.97
69221;BME280;56331;51.992;20.910;2023-04-25T13:03:10;99149.74;;;23.17;41.26
69221;BME280;56331;51.992;20.910;2023-04-25T13:05:38;99150.97;;;23.19;41.18
69221;BME280;56331;51.992;20.910;2023-04-25T13:08:05;99143.19;;;23.15;41.15
69221;BME280;56331;51.992;20.910;2023-04-25T13:10:32;99138.83;;;23.18;40.83
69221;BME280;56331;51.992;20.910;2023-04-25T13:13:00;99141.41;;;23.17;41.06
69221;BME280;56331;51.992;20.910;2023-04-25T13:15:27;99137.23;;;23.17;40.82
69221;BME280;56331;51.992;20.910;2023-04-25T13:17:53;99133.47;;;23.15;40.66
69221;BME280;56331;51.992;20.910;2023-04-25T13:20:19;99134.46;;;23.17;40.80
69221;BME280;56331;51.992;20.910;2023-04-25T13:22:47;99131.88;;;23.18;40.83
69221;BME280;56331;51.992;20.910;2023-04-25T13:25:14;99136.48;;;23.20;41.04
69221;BME280;56331;51.992;20.910;2023-04-25T13:27:41;99133.10;;;23.20;41.09
69221;BME280;56331;51.992;20.910;2023-04-25T13:30:08;99130.92;;;23.20;40.80
69221;BME280;56331;51.992;20.910;2023-04-25T13:32:37;99130.92;;;23.20;40.73
69221;BME280;56331;51.992;20.910;2023-04-25T13:35:05;99132.53;;;23.21;40.77
69221;BME280;56331;51.992;20.910;2023-04-25T13:37:32;99129.16;;;23.21;40.45
69221;BME280;56331;51.992;20.910;2023-04-25T13:40:04;99126.59;;;23.22;40.43
69221;BME280;56331;51.992;20.910;2023-04-25T13:42:32;99122.64;;;23.23;40.29
69221;BME280;56331;51.992;20.910;2023-04-25T13:44:58;99126.22;;;23.24;40.18
69221;BME280;56331;51.992;20.910;2023-04-25T13:47:26;99119.27;;;23.24;40.08
69221;BME280;56331;51.992;20.910;2023-04-25T13:49:53;99121.45;;;23.24;39.96
69221;BME280;56331;51.992;20.910;2023-04-25T13:52:20;99119.30;;;23.27;40.44
69221;BME280;56331;51.992;20.910;2023-04-25T13:54:47;99122.81;;;23.21;40.11
69221;BME280;56331;51.992;20.910;2023-04-25T13:57:14;99128.54;;;23.18;39.99
69221;BME280;56331;51.992;20.910;2023-04-25T13:59:40;99129.11;;;23.18;39.73
69221;BME280;56331;51.992;20.910;2023-04-25T14:02:07;99134.89;;;23.19;39.46
69221;BME280;56331;51.992;20.910;2023-04-25T14:04:34;99128.40;;;23.24;39.47
69221;BME280;56331;51.992;20.910;2023-04-25T14:07:01;99123.64;;;23.25;39.46
69221;BME280;56331;51.992;20.910;2023-04-25T14:09:28;99125.63;;;23.24;39.51
69221;BME280;56331;51.992;20.910;2023-04-25T14:11:55;99128.83;;;23.26;39.55
69221;BME280;56331;51.992;20.910;2023-04-25T14:14:22;99127.63;;;23.27;39.57
69221;BME280;56331;51.992;20.910;2023-04-25T14:16:49;99133.62;;;23.29;39.60
69221;BME280;56331;51.992;20.910;2023-04-25T14:19:20;99127.47;;;23.30;39.71
69221;BME280;56331;51.992;20.910;2023-04-25T14:21:46;99136.59;;;23.30;40.44
69221;BME280;56331;51.992;20.910;2023-04-25T14:24:13;99138.58;;;23.30;40.01
69221;BME280;56331;51.992;20.910;2023-04-25T14:26:40;99140.39;;;23.32;39.94
69221;BME280;56331;51.992;20.910;2023-04-25T14:29:08;99139.20;;;23.33;39.97
69221;BME280;56331;51.992;20.910;2023-04-25T14:31:34;99142.21;;;23.34;40.00
69221;BME280;56331;51.992;20.910;2023-04-25T14:34:02;99136.84;;;23.35;40.00
69221;BME280;56331;51.992;20.910;2023-04-25T14:36:28;99133.47;;;23.35;40.23
69221;BME280;56331;51.992;20.910;2023-04-25T14:38:56;99133.70;;;23.36;40.45
69221;BME280;56331;51.992;20.910;2023-04-25T14:41:24;99130.92;;;23.36;40.62
69221;BME280;56331;51.992;20.910;2023-04-25T14:43:52;99126.16;;;23.37;40.76
69221;BME280;56331;51.992;20.910;2023-04-25T14:46:19;99135.09;;;23.36;40.90
69221;BME280;56331;51.992;20.910;2023-04-25T14:48:46;99132.94;;;23.40;40.97
69221;BME280;56331;51.992;20.910;2023-04-25T14:51:17;99134.30;;;23.36;41.01
69221;BME280;56331;51.992;20.910;2023-04-25T14:53:44;99128.91;;;23.33;41.08
69221;BME280;56331;51.992;20.910;2023-04-25T14:56:10;99136.23;;;23.32;41.00
69221;BME280;56331;51.992;20.910;2023-04-25T14:58:37;99142.98;;;23.31;40.88
69221;BME280;56331;51.992;20.910;2023-04-25T15:01:04;99136.59;;;23.30;40.88
69221;BME280;56331;51.992;20.910;2023-04-25T15:03:31;99140.59;;;23.33;40.86
69221;BME280;56331;51.992;20.910;2023-04-25T15:05:58;99142.84;;;23.37;41.10
69221;BME280;56331;51.992;20.910;2023-04-25T15:08:24;99133.47;;;23.35;41.27
69221;BME280;56331;51.992;20.910;2023-04-25T15:10:51;99141.64;;;23.38;41.36
69221;BME280;56331;51.992;20.910;2023-04-25T15:13:18;99139.09;;;23.39;41.42
69221;BME280;56331;51.992;20.910;2023-04-25T15:15:45;99144.65;;;23.39;41.60
69221;BME280;56331;51.992;20.910;2023-04-25T15:18:14;99141.64;;;23.38;41.63
69221;BME280;56331;51.992;20.910;2023-04-25T15:20:40;99144.42;;;23.38;41.73
69221;BME280;56331;51.992;20.910;2023-04-25T15:23:06;99150.21;;;23.39;41.79
69221;BME280;56331;51.992;20.910;2023-04-25T15:25:33;99143.86;;;23.39;41.76
69221;BME280;56331;51.992;20.910;2023-04-25T15:27:59;99149.02;;;23.40;41.77
69221;BME280;56331;51.992;20.910;2023-04-25T15:30:26;99156.53;;;23.36;41.74
69221;BME280;56331;51.992;20.910;2023-04-25T15:32:52;99152.36;;;23.36;41.83
69221;BME280;56331;51.992;20.910;2023-04-25T15:35:19;99151.54;;;23.35;41.66
69221;BME280;56331;51.992;20.910;2023-04-25T15:37:45;99152.73;;;23.34;41.76
69221;BME280;56331;51.992;20.910;2023-04-25T15:40:14;99159.84;;;23.32;41.73
69221;BME280;56331;51.992;20.910;2023-04-25T15:42:43;99157.27;;;23.33;41.50
69221;BME280;56331;51.992;20.910;2023-04-25T15:45:10;99158.45;;;23.32;41.38
69221;BME280;56331;51.992;20.910;2023-04-25T15:47:38;99157.06;;;23.32;41.24
